createdAt,value
2022-12-07T00:00:09.309Z,25.38
2022-12-07T00:00:21.527Z,25.55
2022-12-07T00:00:33.366Z,24.42
2022-12-07T00:00:45.460Z,23.17
2022-12-07T00:01:09.851Z,23.20
2022-12-07T00:01:24.443Z,27.40
2022-12-07T00:01:40.999Z,23.60
2022-12-07T00:01:53.092Z,24.58
2022-12-07T00:02:05.175Z,24.27
2022-12-07T00:02:20.917Z,24.33
2022-12-07T00:02:33.918Z,25.50
2022-12-07T00:02:45.897Z,26.83
2022-12-07T00:02:57.856Z,26.42
2022-12-07T00:03:10.024Z,25.70
2022-12-07T00:03:22.010Z,25.45
2022-12-07T00:03:34.928Z,24.73
2022-12-07T00:03:47.945Z,26.67
2022-12-07T00:04:07.439Z,26.27
2022-12-07T00:04:20.364Z,23.88
2022-12-07T00:04:32.335Z,23.10
2022-12-07T00:04:44.208Z,21.83
2022-12-07T00:04:56.472Z,22.88
2022-12-07T00:05:09.098Z,24.25
2022-12-07T00:05:21.523Z,24.83
2022-12-07T00:05:33.660Z,24.25
2022-12-07T00:05:45.554Z,25.15
2022-12-07T00:06:00.980Z,25.08
2022-12-07T00:06:14.794Z,25.55
2022-12-07T00:06:27.019Z,24.38
2022-12-07T00:06:47.051Z,22.70
2022-12-07T00:06:58.961Z,22.95
2022-12-07T00:07:10.949Z,24.90
2022-12-07T00:07:27.849Z,24.60
2022-12-07T00:07:40.096Z,23.52
2022-12-07T00:07:52.010Z,24.42
2022-12-07T00:08:04.047Z,27.05
2022-12-07T00:08:16.092Z,26.77
2022-12-07T00:08:28.068Z,24.92
2022-12-07T00:08:39.837Z,22.35
2022-12-07T00:08:51.684Z,22.95
2022-12-07T00:09:05.144Z,23.38
2022-12-07T00:09:18.146Z,23.70
2022-12-07T00:09:29.957Z,23.02
2022-12-07T00:09:42.868Z,23.23
2022-12-07T00:09:55.617Z,24.17
2022-12-07T00:10:08.268Z,25.33
2022-12-07T00:10:20.782Z,26.25
2022-12-07T00:10:35.652Z,25.02
2022-12-07T00:10:47.474Z,31.08
2022-12-07T00:11:08.642Z,31.98
2022-12-07T00:11:22.166Z,21.10
2022-12-07T00:11:34.395Z,22.05
2022-12-07T00:11:48.936Z,24.02
2022-12-07T00:12:00.737Z,25.10
2022-12-07T00:12:12.600Z,24.05
2022-12-07T00:12:24.608Z,23.15
2022-12-07T00:12:36.474Z,23.65
2022-12-07T00:12:48.210Z,23.83
2022-12-07T00:13:00.008Z,24.95
2022-12-07T00:13:11.895Z,24.00
2022-12-07T00:13:23.660Z,21.85
2022-12-07T00:13:35.893Z,20.52
2022-12-07T00:13:48.804Z,22.90
2022-12-07T00:14:03.443Z,25.10
2022-12-07T00:14:16.404Z,23.25
2022-12-07T00:14:28.326Z,23.92
2022-12-07T00:14:40.461Z,23.48
2022-12-07T00:14:52.239Z,22.50
2022-12-07T00:15:04.503Z,21.35
2022-12-07T00:15:16.669Z,22.45
2022-12-07T00:15:28.637Z,22.50
2022-12-07T00:15:40.493Z,24.10
2022-12-07T00:15:52.486Z,25.65
2022-12-07T00:16:09.091Z,26.40
2022-12-07T00:16:22.923Z,25.23
2022-12-07T00:16:35.298Z,22.70
2022-12-07T00:16:47.325Z,21.50
2022-12-07T00:16:59.161Z,23.00
2022-12-07T00:17:11.120Z,22.17
2022-12-07T00:17:23.003Z,22.40
2022-12-07T00:17:35.080Z,23.10
2022-12-07T00:17:47.304Z,23.75
2022-12-07T00:17:59.502Z,22.25
2022-12-07T00:18:11.317Z,21.80
2022-12-07T00:18:23.203Z,24.73
2022-12-07T00:18:35.442Z,25.20
2022-12-07T00:18:47.391Z,23.70
2022-12-07T00:18:59.467Z,22.00
2022-12-07T00:19:12.680Z,20.75
2022-12-07T00:19:24.478Z,20.80
2022-12-07T00:19:36.313Z,22.85
2022-12-07T00:19:48.176Z,22.98
2022-12-07T00:20:00.314Z,22.08
2022-12-07T00:20:12.499Z,23.67
2022-12-07T00:20:24.327Z,24.55
2022-12-07T00:20:36.624Z,22.85
2022-12-07T00:20:48.518Z,24.42
2022-12-07T00:21:05.031Z,24.70
2022-12-07T00:21:25.052Z,24.30
2022-12-07T00:21:37.135Z,25.08
2022-12-07T00:21:49.087Z,23.98
2022-12-07T00:22:00.902Z,22.83
2022-12-07T00:22:15.110Z,21.00
2022-12-07T00:22:26.885Z,22.27
2022-12-07T00:22:38.921Z,22.67
2022-12-07T00:22:50.805Z,23.02
2022-12-07T00:23:03.116Z,23.77
2022-12-07T00:23:22.728Z,22.15
2022-12-07T00:23:34.950Z,21.20
2022-12-07T00:23:47.854Z,23.17
2022-12-07T00:24:00.348Z,25.73
2022-12-07T00:24:12.405Z,25.48
2022-12-07T00:24:24.220Z,24.60
2022-12-07T00:24:36.174Z,23.95
2022-12-07T00:24:49.034Z,23.95
2022-12-07T00:25:00.996Z,22.95
2022-12-07T00:25:13.071Z,22.52
2022-12-07T00:25:24.899Z,20.85
2022-12-07T00:25:36.854Z,21.13
2022-12-07T00:25:52.219Z,20.83
2022-12-07T00:26:10.151Z,21.85
2022-12-07T00:26:25.054Z,22.83
2022-12-07T00:26:39.205Z,21.92
2022-12-07T00:26:51.351Z,22.65
2022-12-07T00:27:03.241Z,24.73
2022-12-07T00:27:15.257Z,24.60
2022-12-07T00:27:28.478Z,24.67
2022-12-07T00:27:40.325Z,24.48
2022-12-07T00:27:56.998Z,23.10
2022-12-07T00:28:10.408Z,21.33
2022-12-07T00:28:23.118Z,21.77
2022-12-07T00:28:36.480Z,22.98
2022-12-07T00:28:53.801Z,23.27
2022-12-07T00:29:13.153Z,22.88
2022-12-07T00:29:25.135Z,23.05
2022-12-07T00:29:38.570Z,24.45
2022-12-07T00:29:50.525Z,25.05
2022-12-07T00:30:03.321Z,23.25
2022-12-07T00:30:16.281Z,22.70
2022-12-07T00:30:29.044Z,22.90
2022-12-07T00:30:40.921Z,21.80
2022-12-07T00:30:52.842Z,22.15
2022-12-07T00:31:07.299Z,22.75
2022-12-07T00:31:23.511Z,22.40
2022-12-07T00:31:40.173Z,22.98
2022-12-07T00:31:52.323Z,23.33
2022-12-07T00:32:05.821Z,22.65
2022-12-07T00:32:21.820Z,22.88
2022-12-07T00:32:34.477Z,23.33
2022-12-07T00:32:46.729Z,22.58
2022-12-07T00:32:58.889Z,21.10
2022-12-07T00:33:10.721Z,20.05
2022-12-07T00:33:22.649Z,21.88
2022-12-07T00:33:35.666Z,24.60
2022-12-07T00:33:47.647Z,26.35
2022-12-07T00:34:00.191Z,23.65
2022-12-07T00:34:18.943Z,21.63
2022-12-07T00:34:31.280Z,23.48
2022-12-07T00:34:43.426Z,24.33
2022-12-07T00:34:55.380Z,24.60
2022-12-07T00:35:07.731Z,24.80
2022-12-07T00:35:20.558Z,26.40
2022-12-07T00:35:32.398Z,24.90
2022-12-07T00:35:44.397Z,22.45
2022-12-07T00:36:00.338Z,22.48
2022-12-07T00:36:15.098Z,24.48
2022-12-07T00:36:27.639Z,26.25
2022-12-07T00:36:39.603Z,24.30
2022-12-07T00:36:51.515Z,21.38
2022-12-07T00:37:03.404Z,23.10
2022-12-07T00:37:15.353Z,23.63
2022-12-07T00:37:27.215Z,23.73
2022-12-07T00:37:39.117Z,22.15
2022-12-07T00:37:50.958Z,21.92
2022-12-07T00:38:03.017Z,23.13
2022-12-07T00:38:14.767Z,25.55
2022-12-07T00:38:30.103Z,25.67
2022-12-07T00:38:42.246Z,23.63
2022-12-07T00:38:58.526Z,23.35
2022-12-07T00:39:10.587Z,22.33
2022-12-07T00:39:22.474Z,22.23
2022-12-07T00:39:34.391Z,23.70
2022-12-07T00:39:47.486Z,23.65
2022-12-07T00:39:59.867Z,23.67
2022-12-07T00:40:12.668Z,23.02
2022-12-07T00:40:24.632Z,22.33
2022-12-07T00:40:36.376Z,22.80
2022-12-07T00:40:59.403Z,23.65
2022-12-07T00:41:22.517Z,22.65
2022-12-07T00:41:34.834Z,25.38
2022-12-07T00:41:46.943Z,24.63
2022-12-07T00:41:59.066Z,24.45
2022-12-07T00:42:11.029Z,24.02
2022-12-07T00:42:22.840Z,23.48
2022-12-07T00:42:34.611Z,23.30
2022-12-07T00:42:46.477Z,24.10
2022-12-07T00:42:58.308Z,25.17
2022-12-07T00:43:10.138Z,26.16
2022-12-07T00:43:22.093Z,25.52
2022-12-07T00:43:34.042Z,22.90
2022-12-07T00:43:46.645Z,20.45
2022-12-07T00:43:58.635Z,21.48
2022-12-07T00:44:10.629Z,24.30
2022-12-07T00:44:22.692Z,24.27
2022-12-07T00:44:34.858Z,23.02
2022-12-07T00:44:46.717Z,23.83
2022-12-07T00:44:58.553Z,25.17
2022-12-07T00:45:10.598Z,25.02
2022-12-07T00:45:22.617Z,23.52
2022-12-07T00:45:34.670Z,22.50
2022-12-07T00:45:46.709Z,22.13
2022-12-07T00:45:58.589Z,23.06
2022-12-07T00:46:11.091Z,23.00
2022-12-07T00:46:23.581Z,23.40
2022-12-07T00:46:35.508Z,23.42
2022-12-07T00:46:47.538Z,24.10
2022-12-07T00:46:59.350Z,23.70
2022-12-07T00:47:11.497Z,24.20
2022-12-07T00:47:23.373Z,24.60
2022-12-07T00:47:35.403Z,22.27
2022-12-07T00:47:47.422Z,21.90
2022-12-07T00:47:59.306Z,23.33
2022-12-07T00:48:11.179Z,23.02
2022-12-07T00:48:23.460Z,22.35
2022-12-07T00:48:35.456Z,24.30
2022-12-07T00:48:47.784Z,23.90
2022-12-07T00:48:59.913Z,22.27
2022-12-07T00:49:11.847Z,21.58
2022-12-07T00:49:23.669Z,22.15
2022-12-07T00:49:35.541Z,22.75
2022-12-07T00:49:47.393Z,22.65
2022-12-07T00:49:59.944Z,21.77
2022-12-07T00:50:11.967Z,22.83
2022-12-07T00:50:23.868Z,23.40
2022-12-07T00:50:35.811Z,23.45
2022-12-07T00:50:47.701Z,22.88
2022-12-07T00:50:59.468Z,22.92
2022-12-07T00:51:12.472Z,23.27
2022-12-07T00:51:25.519Z,23.45
2022-12-07T00:51:37.471Z,25.17
2022-12-07T00:51:50.284Z,22.85
2022-12-07T00:52:02.086Z,22.02
2022-12-07T00:52:13.938Z,21.48
2022-12-07T00:52:25.764Z,23.50
2022-12-07T00:52:37.582Z,24.95
2022-12-07T00:52:49.343Z,25.48
2022-12-07T00:53:01.189Z,25.98
2022-12-07T00:53:13.074Z,24.35
2022-12-07T00:53:25.398Z,22.92
2022-12-07T00:53:41.384Z,22.15
2022-12-07T00:53:53.999Z,22.13
2022-12-07T00:54:05.814Z,23.08
2022-12-07T00:54:17.622Z,22.42
2022-12-07T00:54:29.644Z,22.00
2022-12-07T00:54:41.552Z,22.33
2022-12-07T00:54:53.562Z,22.25
2022-12-07T00:55:06.112Z,24.38
2022-12-07T00:55:18.001Z,23.58
2022-12-07T00:55:34.214Z,22.08
2022-12-07T00:55:46.242Z,21.58
2022-12-07T00:55:58.228Z,21.00
2022-12-07T00:56:12.989Z,21.90
2022-12-07T00:56:27.266Z,22.23
2022-12-07T00:56:39.297Z,21.42
2022-12-07T00:56:51.328Z,23.10
2022-12-07T00:57:03.349Z,22.60
2022-12-07T00:57:15.342Z,21.83
2022-12-07T00:57:27.149Z,23.45
2022-12-07T00:57:38.941Z,25.65
2022-12-07T00:57:51.222Z,26.42
2022-12-07T00:58:03.701Z,25.33
2022-12-07T00:58:16.084Z,22.92
2022-12-07T00:58:27.924Z,24.50
2022-12-07T00:58:40.229Z,25.88
2022-12-07T00:58:57.615Z,25.17
2022-12-07T00:59:14.171Z,22.10
2022-12-07T00:59:26.014Z,20.98
2022-12-07T00:59:38.314Z,22.68
2022-12-07T00:59:50.163Z,22.50
2022-12-07T01:00:02.356Z,24.13
2022-12-07T01:00:14.888Z,24.48
2022-12-07T01:00:26.792Z,25.50
2022-12-07T01:00:40.110Z,23.42
2022-12-07T01:00:52.064Z,23.38
2022-12-07T01:01:04.886Z,23.60
2022-12-07T01:01:16.854Z,22.80
2022-12-07T01:01:31.417Z,21.60
2022-12-07T01:01:43.574Z,23.17
2022-12-07T01:01:55.591Z,23.83
2022-12-07T01:02:07.791Z,23.00
2022-12-07T01:02:19.929Z,23.98
2022-12-07T01:02:31.833Z,22.23
2022-12-07T01:02:43.643Z,20.80
2022-12-07T01:02:55.668Z,20.58
2022-12-07T01:03:08.488Z,20.55
2022-12-07T01:03:20.407Z,21.73
2022-12-07T01:03:32.821Z,22.08
2022-12-07T01:03:44.842Z,22.27
2022-12-07T01:03:57.248Z,22.23
2022-12-07T01:04:10.025Z,22.02
2022-12-07T01:04:22.216Z,22.90
2022-12-07T01:04:35.442Z,21.95
2022-12-07T01:04:47.588Z,22.17
2022-12-07T01:04:59.663Z,21.45
2022-12-07T01:05:11.615Z,22.83
2022-12-07T01:05:23.446Z,22.70
2022-12-07T01:05:36.595Z,22.15
2022-12-07T01:05:56.380Z,22.48
2022-12-07T01:06:08.588Z,21.52
2022-12-07T01:06:21.732Z,21.23
2022-12-07T01:06:33.690Z,22.85
2022-12-07T01:06:46.539Z,24.25
2022-12-07T01:06:58.482Z,23.90
2022-12-07T01:07:10.298Z,22.30
2022-12-07T01:07:22.164Z,22.13
2022-12-07T01:07:34.105Z,22.23
2022-12-07T01:07:47.549Z,21.55
2022-12-07T01:08:00.035Z,21.33
2022-12-07T01:08:12.041Z,21.88
2022-12-07T01:08:24.506Z,21.67
2022-12-07T01:08:36.315Z,21.92
2022-12-07T01:08:48.230Z,22.33
2022-12-07T01:09:00.355Z,22.80
2022-12-07T01:09:12.318Z,20.63
2022-12-07T01:09:24.171Z,20.98
2022-12-07T01:09:36.299Z,21.42
2022-12-07T01:09:48.160Z,23.75
2022-12-07T01:10:00.448Z,23.60
2022-12-07T01:10:12.503Z,23.58
2022-12-07T01:10:24.455Z,22.13
2022-12-07T01:10:36.339Z,22.48
2022-12-07T01:10:48.389Z,23.08
2022-12-07T01:11:09.418Z,24.25
2022-12-07T01:11:24.201Z,22.60
2022-12-07T01:11:36.534Z,23.98
2022-12-07T01:11:48.490Z,23.85
2022-12-07T01:12:00.683Z,23.40
2022-12-07T01:12:12.547Z,23.40
2022-12-07T01:12:24.418Z,24.45
2022-12-07T01:12:37.507Z,24.67
2022-12-07T01:12:49.381Z,22.85
2022-12-07T01:13:01.188Z,21.00
2022-12-07T01:13:13.258Z,21.92
2022-12-07T01:13:25.949Z,22.45
2022-12-07T01:13:37.814Z,21.75
2022-12-07T01:13:52.381Z,21.17
2022-12-07T01:14:04.406Z,20.70
2022-12-07T01:14:16.245Z,21.45
2022-12-07T01:14:28.942Z,23.00
2022-12-07T01:14:42.420Z,24.48
2022-12-07T01:14:55.001Z,25.48
2022-12-07T01:15:08.212Z,22.88
2022-12-07T01:15:20.090Z,21.05
2022-12-07T01:15:32.080Z,22.20
2022-12-07T01:15:44.832Z,22.15
2022-12-07T01:16:00.999Z,21.52
2022-12-07T01:16:16.040Z,21.85
2022-12-07T01:16:33.322Z,23.20
2022-12-07T01:16:45.228Z,22.88
2022-12-07T01:16:57.380Z,22.88
2022-12-07T01:17:09.386Z,24.70
2022-12-07T01:17:21.384Z,25.52
2022-12-07T01:17:33.276Z,22.23
2022-12-07T01:17:45.108Z,21.02
2022-12-07T01:17:56.933Z,20.25
2022-12-07T01:18:08.918Z,20.52
2022-12-07T01:18:20.709Z,20.52
2022-12-07T01:18:34.452Z,21.80
2022-12-07T01:18:51.062Z,22.25
2022-12-07T01:19:03.370Z,22.90
2022-12-07T01:19:15.212Z,21.08
2022-12-07T01:19:27.000Z,19.17
2022-12-07T01:19:38.757Z,18.60
2022-12-07T01:19:50.944Z,19.98
2022-12-07T01:20:04.057Z,19.60
2022-12-07T01:20:17.191Z,20.33
2022-12-07T01:20:29.520Z,20.20
2022-12-07T01:20:41.348Z,20.13
2022-12-07T01:21:04.725Z,19.77
2022-12-07T01:21:28.781Z,20.05
2022-12-07T01:21:40.521Z,19.40
2022-12-07T01:21:52.312Z,19.23
2022-12-07T01:22:04.113Z,20.25
2022-12-07T01:22:16.034Z,21.27
2022-12-07T01:22:27.878Z,20.48
2022-12-07T01:22:41.021Z,19.15
2022-12-07T01:22:52.764Z,18.67
2022-12-07T01:23:04.573Z,18.15
2022-12-07T01:23:16.543Z,20.30
2022-12-07T01:23:28.566Z,19.20
2022-12-07T01:23:40.598Z,18.42
2022-12-07T01:23:53.040Z,18.83
2022-12-07T01:24:08.029Z,19.73
2022-12-07T01:24:19.930Z,18.98
2022-12-07T01:24:31.754Z,18.90
2022-12-07T01:24:43.627Z,19.88
2022-12-07T01:24:55.509Z,19.02
2022-12-07T01:25:08.482Z,18.45
2022-12-07T01:25:20.485Z,17.67
2022-12-07T01:25:32.391Z,18.00
2022-12-07T01:25:44.314Z,18.60
2022-12-07T01:26:00.949Z,20.20
2022-12-07T01:26:18.197Z,18.67
2022-12-07T01:26:30.124Z,17.50
2022-12-07T01:26:42.136Z,17.50
2022-12-07T01:26:54.362Z,18.25
2022-12-07T01:27:06.446Z,17.48
2022-12-07T01:27:19.134Z,17.63
2022-12-07T01:27:31.195Z,17.73
2022-12-07T01:27:43.164Z,16.75
2022-12-07T01:27:54.983Z,15.73
2022-12-07T01:28:06.722Z,15.48
2022-12-07T01:28:18.801Z,17.77
2022-12-07T01:28:30.699Z,18.55
2022-12-07T01:28:42.899Z,18.73
2022-12-07T01:28:56.156Z,17.17
2022-12-07T01:29:08.240Z,16.63
2022-12-07T01:29:20.012Z,17.63
2022-12-07T01:29:31.822Z,17.20
2022-12-07T01:29:43.661Z,18.15
2022-12-07T01:29:55.501Z,17.75
2022-12-07T01:30:08.370Z,17.45
2022-12-07T01:30:20.228Z,17.50
2022-12-07T01:30:32.143Z,16.58
2022-12-07T01:30:44.064Z,16.33
2022-12-07T01:31:06.917Z,16.65
2022-12-07T01:31:21.344Z,17.38
2022-12-07T01:31:33.386Z,16.20
2022-12-07T01:31:45.242Z,17.10
2022-12-07T01:31:57.001Z,18.00
2022-12-07T01:32:08.973Z,16.98
2022-12-07T01:32:21.596Z,16.67
2022-12-07T01:32:34.269Z,16.60
2022-12-07T01:32:46.087Z,17.33
2022-12-07T01:32:57.915Z,18.38
2022-12-07T01:33:09.700Z,17.88
2022-12-07T01:33:21.590Z,17.55
2022-12-07T01:33:35.946Z,16.00
2022-12-07T01:33:58.592Z,16.85
2022-12-07T01:34:10.552Z,16.70
2022-12-07T01:34:22.394Z,17.52
2022-12-07T01:34:34.298Z,17.83
2022-12-07T01:34:46.184Z,18.10
2022-12-07T01:34:58.055Z,17.80
2022-12-07T01:35:09.852Z,16.55
2022-12-07T01:35:21.628Z,16.77
2022-12-07T01:35:34.946Z,16.48
2022-12-07T01:35:46.718Z,17.15
2022-12-07T01:36:23.754Z,18.95
2022-12-07T01:36:36.795Z,17.20
2022-12-07T01:36:48.811Z,15.93
2022-12-07T01:37:00.585Z,16.75
2022-12-07T01:37:12.369Z,17.60
2022-12-07T01:37:24.917Z,19.00
2022-12-07T01:37:38.182Z,18.42
2022-12-07T01:37:50.047Z,17.85
2022-12-07T01:38:01.797Z,17.15
2022-12-07T01:38:13.614Z,17.40
2022-12-07T01:38:25.450Z,15.98
2022-12-07T01:38:37.236Z,15.52
2022-12-07T01:38:52.794Z,15.65
2022-12-07T01:39:07.397Z,15.38
2022-12-07T01:39:19.219Z,15.32
2022-12-07T01:39:31.027Z,16.45
2022-12-07T01:39:43.016Z,16.67
2022-12-07T01:39:54.838Z,16.00
2022-12-07T01:40:08.247Z,16.95
2022-12-07T01:40:20.206Z,17.13
2022-12-07T01:40:32.014Z,17.48
2022-12-07T01:40:43.783Z,17.63
2022-12-07T01:40:57.065Z,17.77
2022-12-07T01:41:08.966Z,16.40
2022-12-07T01:41:21.764Z,15.85
2022-12-07T01:41:36.862Z,15.50
2022-12-07T01:41:48.727Z,15.55
2022-12-07T01:42:00.588Z,15.20
2022-12-07T01:42:12.914Z,16.25
2022-12-07T01:42:24.721Z,15.43
2022-12-07T01:42:36.616Z,16.95
2022-12-07T01:42:48.501Z,15.85
2022-12-07T01:43:00.242Z,18.83
2022-12-07T01:43:19.185Z,19.55
2022-12-07T01:43:32.272Z,18.17
2022-12-07T01:44:24.756Z,15.88
2022-12-07T01:45:30.392Z,14.85
2022-12-07T01:45:43.762Z,16.55
2022-12-07T01:45:56.331Z,16.08
2022-12-07T01:46:08.199Z,15.70
2022-12-07T01:46:20.384Z,16.42
2022-12-07T01:46:32.250Z,16.75
2022-12-07T01:46:51.932Z,15.52
2022-12-07T01:47:04.912Z,16.35
2022-12-07T01:47:16.980Z,17.58
2022-12-07T01:47:28.919Z,18.45
2022-12-07T01:47:41.609Z,17.88
2022-12-07T01:47:55.843Z,16.50
2022-12-07T01:48:08.995Z,16.80
2022-12-07T01:48:28.649Z,17.00
2022-12-07T01:48:41.501Z,15.68
2022-12-07T01:48:53.251Z,15.32
2022-12-07T01:49:06.939Z,19.73
2022-12-07T01:49:26.243Z,20.55
2022-12-07T01:49:49.290Z,17.60
2022-12-07T01:50:01.459Z,17.05
2022-12-07T01:50:13.759Z,17.25
2022-12-07T01:50:27.951Z,16.60
2022-12-07T01:50:39.754Z,17.02
2022-12-07T01:50:51.786Z,17.05
2022-12-07T01:51:10.845Z,15.55
2022-12-07T01:51:22.737Z,16.08
2022-12-07T01:51:34.555Z,16.35
2022-12-07T01:51:47.416Z,18.05
2022-12-07T01:52:28.718Z,16.42
2022-12-07T01:52:40.584Z,16.77
2022-12-07T01:52:52.364Z,17.15
2022-12-07T01:53:05.487Z,18.88
2022-12-07T01:53:17.222Z,19.55
2022-12-07T01:53:29.906Z,20.52
2022-12-07T01:53:44.804Z,18.23
2022-12-07T01:53:56.650Z,16.55
2022-12-07T01:54:10.586Z,17.27
2022-12-07T01:54:22.705Z,17.13
2022-12-07T01:54:34.564Z,16.40
2022-12-07T01:54:46.936Z,15.48
2022-12-07T01:55:08.910Z,15.05
2022-12-07T01:55:21.397Z,15.52
2022-12-07T01:55:33.225Z,17.35
2022-12-07T01:55:47.100Z,18.38
2022-12-07T01:55:58.981Z,18.10
2022-12-07T01:56:12.121Z,16.60
2022-12-07T01:56:26.197Z,15.65
2022-12-07T01:56:38.093Z,15.82
2022-12-07T01:56:54.941Z,15.13
2022-12-07T01:57:07.669Z,15.50
2022-12-07T01:57:19.504Z,16.38
2022-12-07T01:57:32.382Z,15.98
2022-12-07T01:57:48.805Z,16.83
2022-12-07T01:58:00.575Z,15.25
2022-12-07T01:58:13.091Z,15.43
2022-12-07T01:58:25.108Z,15.35
2022-12-07T01:58:36.916Z,15.48
2022-12-07T01:58:48.700Z,15.57
2022-12-07T01:59:00.487Z,16.92
2022-12-07T01:59:12.253Z,17.25
2022-12-07T01:59:25.849Z,16.60
2022-12-07T01:59:38.140Z,15.25
2022-12-07T01:59:51.087Z,15.90
2022-12-07T02:00:03.695Z,15.88
2022-12-07T02:00:16.204Z,15.43
2022-12-07T02:00:27.979Z,15.05
2022-12-07T02:00:40.032Z,16.45
2022-12-07T02:00:51.891Z,16.77
2022-12-07T02:01:04.004Z,17.38
2022-12-07T02:01:15.943Z,17.85
2022-12-07T02:01:27.778Z,17.35
2022-12-07T02:01:39.766Z,15.90
2022-12-07T02:01:52.677Z,15.90
2022-12-07T02:02:08.812Z,15.68
2022-12-07T02:02:28.304Z,15.57
2022-12-07T02:02:54.320Z,17.38
2022-12-07T02:03:15.045Z,14.52
2022-12-07T02:03:35.259Z,16.98
2022-12-07T02:03:47.087Z,16.10
2022-12-07T02:03:58.871Z,17.15
2022-12-07T02:04:10.788Z,18.13
2022-12-07T02:04:23.516Z,18.10
2022-12-07T02:04:35.788Z,16.85
2022-12-07T02:04:47.627Z,16.63
2022-12-07T02:05:00.413Z,16.15
2022-12-07T02:05:12.935Z,15.60
2022-12-07T02:05:25.533Z,15.18
2022-12-07T02:05:38.133Z,15.38
2022-12-07T02:05:50.014Z,15.73
2022-12-07T02:06:01.864Z,15.40
2022-12-07T02:06:16.407Z,15.00
2022-12-07T02:06:28.279Z,13.90
2022-12-07T02:06:40.374Z,14.80
2022-12-07T02:06:52.605Z,15.05
2022-12-07T02:07:04.943Z,15.54
2022-12-07T02:07:16.777Z,15.40
2022-12-07T02:07:28.813Z,14.77
2022-12-07T02:07:40.861Z,15.50
2022-12-07T02:07:54.546Z,16.95
2022-12-07T02:08:06.557Z,16.85
2022-12-07T02:08:18.852Z,16.02
2022-12-07T02:08:30.652Z,15.15
2022-12-07T02:08:42.556Z,16.23
2022-12-07T02:08:54.654Z,17.10
2022-12-07T02:09:06.461Z,17.02
2022-12-07T02:09:18.292Z,14.88
2022-12-07T02:09:30.654Z,14.68
2022-12-07T02:09:42.457Z,16.35
2022-12-07T02:09:54.411Z,16.38
2022-12-07T02:10:24.897Z,16.80
2022-12-07T02:10:36.678Z,15.58
2022-12-07T02:10:48.503Z,15.85
2022-12-07T02:11:01.922Z,15.43
2022-12-07T02:11:13.717Z,15.27
2022-12-07T02:11:25.484Z,15.22
2022-12-07T02:11:37.340Z,16.58
2022-12-07T02:11:49.102Z,15.65
2022-12-07T02:12:00.944Z,14.73
2022-12-07T02:12:12.943Z,14.65
2022-12-07T02:12:24.844Z,15.43
2022-12-07T02:12:36.690Z,15.80
2022-12-07T02:13:02.315Z,16.35
2022-12-07T02:13:22.849Z,16.98
2022-12-07T02:13:36.682Z,15.38
2022-12-07T02:13:48.519Z,15.73
2022-12-07T02:14:00.402Z,16.50
2022-12-07T02:14:12.261Z,15.10
2022-12-07T02:14:24.089Z,14.40
2022-12-07T02:14:35.868Z,14.07
2022-12-07T02:14:47.679Z,13.70
2022-12-07T02:14:59.445Z,13.75
2022-12-07T02:15:11.252Z,15.23
2022-12-07T02:15:25.141Z,15.65
2022-12-07T02:16:01.588Z,14.90
2022-12-07T02:16:50.562Z,17.80
2022-12-07T02:17:20.194Z,16.83
2022-12-07T02:18:01.813Z,16.80
2022-12-07T02:18:55.043Z,14.43
2022-12-07T02:20:04.939Z,15.82
2022-12-07T02:20:59.591Z,16.38
2022-12-07T02:21:44.294Z,14.85
2022-12-07T02:22:01.521Z,14.40
2022-12-07T02:22:40.723Z,15.48
2022-12-07T02:23:39.108Z,15.25
2022-12-07T02:24:12.140Z,15.63
2022-12-07T02:24:38.982Z,15.13
2022-12-07T02:25:28.009Z,14.07
2022-12-07T02:26:08.019Z,13.98
2022-12-07T02:26:43.692Z,16.85
2022-12-07T02:27:22.998Z,15.80
2022-12-07T02:27:53.187Z,16.02
2022-12-07T02:28:10.154Z,13.93
2022-12-07T02:29:18.971Z,14.10
2022-12-07T02:30:07.034Z,14.65
2022-12-07T02:30:20.733Z,15.13
2022-12-07T02:30:34.935Z,14.68
2022-12-07T02:30:48.381Z,13.38
2022-12-07T02:31:07.435Z,12.57
2022-12-07T02:31:21.418Z,14.05
2022-12-07T02:31:33.366Z,14.02
2022-12-07T02:32:08.426Z,13.00
2022-12-07T02:33:00.389Z,16.48
2022-12-07T02:33:19.066Z,15.32
2022-12-07T02:33:45.492Z,14.65
2022-12-07T02:34:29.815Z,16.15
2022-12-07T02:35:01.966Z,14.50
2022-12-07T02:35:32.772Z,13.50
2022-12-07T02:36:07.199Z,15.45
2022-12-07T02:36:25.329Z,15.63
2022-12-07T02:36:47.597Z,15.25
2022-12-07T02:37:04.807Z,15.73
2022-12-07T02:37:48.111Z,16.38
2022-12-07T02:38:20.864Z,14.35
2022-12-07T02:38:52.054Z,17.42
2022-12-07T02:39:34.527Z,14.10
2022-12-07T02:40:11.085Z,13.98
2022-12-07T02:40:51.230Z,14.55
2022-12-07T02:41:13.939Z,16.73
2022-12-07T02:41:39.057Z,15.95
2022-12-07T02:41:56.041Z,15.07
2022-12-07T02:42:20.062Z,14.43
2022-12-07T02:42:46.177Z,13.30
2022-12-07T02:43:31.738Z,15.60
2022-12-07T02:43:47.932Z,15.57
2022-12-07T02:44:06.005Z,15.13
2022-12-07T02:44:21.256Z,14.75
2022-12-07T02:44:33.034Z,15.60
2022-12-07T02:44:45.090Z,14.88
2022-12-07T02:44:56.800Z,15.98
2022-12-07T02:45:09.058Z,15.30
2022-12-07T02:45:22.548Z,14.35
2022-12-07T02:45:34.302Z,14.45
2022-12-07T02:45:46.601Z,18.52
2022-12-07T02:46:05.498Z,17.65
2022-12-07T02:46:24.437Z,15.77
2022-12-07T02:46:53.832Z,15.98
2022-12-07T02:47:08.436Z,13.98
2022-12-07T02:47:20.663Z,13.70
2022-12-07T02:47:32.935Z,14.52
2022-12-07T02:47:44.881Z,15.80
2022-12-07T02:47:57.825Z,14.60
2022-12-07T02:48:10.042Z,14.68
2022-12-07T02:48:21.849Z,15.55
2022-12-07T02:48:34.236Z,15.60
2022-12-07T02:48:46.012Z,15.13
2022-12-07T02:49:00.388Z,16.50
2022-12-07T02:49:12.335Z,15.45
2022-12-07T02:49:24.793Z,14.65
2022-12-07T02:49:37.704Z,15.32
2022-12-07T02:49:49.562Z,16.02
2022-12-07T02:50:04.524Z,15.82
2022-12-07T02:50:16.721Z,15.85
2022-12-07T02:50:29.030Z,15.15
2022-12-07T02:50:45.718Z,15.60
2022-12-07T02:50:57.840Z,15.02
2022-12-07T02:51:09.726Z,13.82
2022-12-07T02:51:22.295Z,14.65
2022-12-07T02:51:34.554Z,15.05
2022-12-07T02:51:47.340Z,15.98
2022-12-07T02:51:59.141Z,16.58
2022-12-07T02:52:10.974Z,16.15
2022-12-07T02:52:22.807Z,14.85
2022-12-07T02:52:34.752Z,15.93
2022-12-07T02:52:46.547Z,15.48
2022-12-07T02:52:58.351Z,14.98
2022-12-07T02:53:36.500Z,14.88
2022-12-07T02:53:48.275Z,14.13
2022-12-07T02:54:00.798Z,13.90
2022-12-07T02:54:14.771Z,13.45
2022-12-07T02:54:26.564Z,14.30
2022-12-07T02:54:38.433Z,14.75
2022-12-07T02:54:50.268Z,15.27
2022-12-07T02:55:02.022Z,15.18
2022-12-07T02:55:14.375Z,16.30
2022-12-07T02:55:31.722Z,17.10
2022-12-07T02:55:43.540Z,14.95
2022-12-07T02:55:55.369Z,14.25
2022-12-07T02:56:44.140Z,14.00
2022-12-07T02:57:20.999Z,15.23
2022-12-07T02:58:25.167Z,15.20
2022-12-07T02:58:52.209Z,16.48
2022-12-07T02:59:13.693Z,17.33
2022-12-07T02:59:33.941Z,16.25
2022-12-07T03:00:03.622Z,18.30
2022-12-07T03:00:16.798Z,20.33
2022-12-07T03:00:28.546Z,20.83
2022-12-07T03:00:56.098Z,15.90
2022-12-07T03:01:45.583Z,15.27
2022-12-07T03:02:25.188Z,15.32
2022-12-07T03:02:40.110Z,14.93
2022-12-07T03:03:05.438Z,15.57
2022-12-07T03:03:17.428Z,16.42
2022-12-07T03:03:29.217Z,16.45
2022-12-07T03:03:41.000Z,16.60
2022-12-07T03:04:23.725Z,16.75
2022-12-07T03:05:11.099Z,15.88
2022-12-07T03:05:56.587Z,15.25
2022-12-07T03:06:18.011Z,16.75
2022-12-07T03:06:33.001Z,15.57
2022-12-07T03:06:52.216Z,14.52
2022-12-07T03:07:52.241Z,13.07
2022-12-07T03:08:23.805Z,15.52
2022-12-07T03:08:48.766Z,16.20
2022-12-07T03:09:23.119Z,15.02
2022-12-07T03:09:41.836Z,15.48
2022-12-07T03:10:05.145Z,14.73
2022-12-07T03:10:50.173Z,12.65
2022-12-07T03:11:10.687Z,15.15
2022-12-07T03:11:31.399Z,16.45
2022-12-07T03:11:52.693Z,16.70
2022-12-07T03:12:17.979Z,17.33
2022-12-07T03:13:28.396Z,15.40
2022-12-07T03:14:04.682Z,15.45
2022-12-07T03:14:34.120Z,14.68
2022-12-07T03:15:13.119Z,15.60
2022-12-07T03:15:53.607Z,16.38
2022-12-07T03:16:22.899Z,15.23
2022-12-07T03:16:38.793Z,14.48
2022-12-07T03:17:08.575Z,14.73
2022-12-07T03:17:25.473Z,15.75
2022-12-07T03:17:39.799Z,14.80
2022-12-07T03:17:51.526Z,16.05
2022-12-07T03:18:03.810Z,16.65
2022-12-07T03:18:17.987Z,16.50
2022-12-07T03:18:33.028Z,15.95
2022-12-07T03:19:04.447Z,14.32
2022-12-07T03:19:21.494Z,18.35
2022-12-07T03:19:33.511Z,17.50
2022-12-07T03:19:45.502Z,16.38